Time;durP1;ratioP1;P1;durP2;ratioP2;P2;SDS_P1;SDS_P2;PMS_P1;PMS_P2;Temp;Humidity;BMP_temperature;BMP_pressure;BME280_temperature;BME280_humidity;BME280_pressure;Samples;Min_cycle;Max_cycle;Signal;HPM_P1;HPM_P2
2021/04/22 00:02:13;;;;;;;7.20;4.03;;;;;;;;;;4990711;28;20418;-70
2021/04/22 00:04:39;;;;;;;4.15;3.75;;;;;;;;;;4991854;28;20402;-72
2021/04/22 00:07:06;;;;;;;4.40;4.00;;;;;;;;;;4990825;28;20378;-72
2021/04/22 00:09:32;;;;;;;4.60;4.20;;;;;;;;;;4991362;28;20744;-74
2021/04/22 00:11:58;;;;;;;4.00;3.60;;;;;;;;;;4990836;28;20379;-77
2021/04/22 00:14:24;;;;;;;4.80;4.30;;;;;;;;;;4991662;28;20383;-72
2021/04/22 00:16:50;;;;;;;4.40;4.00;;;;;;;;;;4991461;28;20486;-72
2021/04/22 00:19:16;;;;;;;5.30;3.60;;;;;;;;;;4990654;28;20471;-72
2021/04/22 00:21:42;;;;;;;3.80;3.40;;;;;;;;;;4991490;28;20382;-72
2021/04/22 00:24:09;;;;;;;4.35;3.95;;;8.70;99.90;;;;;;4973061;28;20497;-72
2021/04/22 00:26:34;;;;;;;4.90;3.95;;;;;;;;;;4991006;28;20555;-72
2021/04/22 00:29:00;;;;;;;4.20;3.80;;;;;;;;;;4990533;28;20843;-72
2021/04/22 00:31:26;;;;;;;4.45;3.47;;;;;;;;;;4973481;28;20387;-72
2021/04/22 00:33:52;;;;;;;5.00;3.47;;;8.40;99.90;;;;;;4991019;28;20392;-72
2021/04/22 00:36:18;;;;;;;4.20;3.40;;;;;;;;;;4990328;28;21072;-72
2021/04/22 00:38:44;;;;;;;4.20;3.53;;;;;;;;;;4991161;28;20469;-72
2021/04/22 00:41:10;;;;;;;4.53;3.97;;;;;;;;;;4990001;28;20967;-72
2021/04/22 00:43:37;;;;;;;4.30;3.88;;;;;;;;;;4990692;28;20422;-72
2021/04/22 00:46:03;;;;;;;3.70;3.30;;;;;;;;;;4989807;28;20383;-72
2021/04/22 00:48:29;;;;;;;4.25;3.70;;;;;;;;;;4991034;28;20411;-72
2021/04/22 00:50:56;;;;;;;4.63;4.13;;;;;;;;;;4990871;28;20454;-72
2021/04/22 00:53:23;;;;;;;4.97;4.22;;;;;;;;;;4972614;28;20397;-72
2021/04/22 00:55:49;;;;;;;4.43;4.00;;;;;;;;;;4990367;28;20375;-72
2021/04/22 00:58:15;;;;;;;4.33;3.93;;;;;;;;;;4989989;28;20886;-72
2021/04/22 01:00:43;;;;;;;3.67;3.38;;;;;;;;;;4990326;28;20434;-72
2021/04/22 01:03:09;;;;;;;4.10;3.70;;;;;;;;;;4989710;28;20415;-72
2021/04/22 01:05:37;;;;;;;5.35;3.88;;;;;;;;;;4990804;28;20453;-72
2021/04/22 01:08:03;;;;;;;3.50;3.20;;;;;;;;;;4989945;28;20379;-72
2021/04/22 01:10:29;;;;;;;3.70;3.28;;;;;;;;;;4990623;28;20472;-71
2021/04/22 01:12:55;;;;;;;4.22;3.50;;;8.80;99.90;;;;;;4990698;28;20406;-72
2021/04/22 01:15:26;;;;;;;4.00;3.60;;;8.60;99.90;;;;;;4990020;28;20379;-72
2021/04/22 01:17:52;;;;;;;3.90;3.50;;;;;;;;;;4990621;28;20461;-73
2021/04/22 01:20:28;;;;;;;4.60;3.53;;;8.60;99.90;;;;;;4989883;28;20390;-72
2021/04/22 01:22:55;;;;;;;4.85;3.58;;;8.60;99.90;;;;;;4990704;28;20413;-74
2021/04/22 01:25:24;;;;;;;4.28;3.67;;;8.80;99.90;;;;;;4989311;28;20584;-72
2021/04/22 01:27:50;;;;;;;4.28;3.88;;;;;;;;;;4972961;28;20784;-72
2021/04/22 01:30:18;;;;;;;4.50;3.50;;;;;;;;;;4989668;28;20705;-72
2021/04/22 01:32:44;;;;;;;4.10;3.80;;;;;;;;;;4972900;28;20382;-72
2021/04/22 01:35:15;;;;;;;4.47;3.72;;;;;;;;;;4989232;28;20379;-72
2021/04/22 01:37:42;;;;;;;4.30;3.90;;;;;;;;;;4989867;28;20381;-72
2021/04/22 01:40:08;;;;;;;4.20;3.80;;;;;;;;;;4989144;28;20378;-72
2021/04/22 01:42:34;;;;;;;6.22;3.95;;;;;;;;;;4989685;28;20394;-72
2021/04/22 01:45:00;;;;;;;4.33;3.63;;;;;;;;;;4989543;28;21006;-76
2021/04/22 01:47:26;;;;;;;4.65;3.80;;;;;;;;;;4989261;28;20501;-72
2021/04/22 01:49:52;;;;;;;4.05;3.20;;;8.90;99.90;;;;;;4989901;28;20386;-72
2021/04/22 01:52:18;;;;;;;4.97;4.30;;;;;;;;;;4988705;28;20470;-73
2021/04/22 01:54:44;;;;;;;4.20;3.80;;;;;;;;;;4971425;28;20513;-73
2021/04/22 01:57:10;;;;;;;3.85;3.55;;;;;;;;;;4989622;28;20728;-73
2021/04/22 01:59:36;;;;;;;5.90;3.77;;;;;;;;;;4993942;28;20378;-72
2021/04/22 02:02:02;;;;;;;4.30;3.90;;;;;;;;;;4993218;28;20811;-76
2021/04/22 02:04:28;;;;;;;4.40;4.00;;;;;;;;;;4993539;28;20412;-72
2021/04/22 02:06:54;;;;;;;4.00;3.42;;;;;;;;;;4993921;28;20383;-72
2021/04/22 02:09:20;;;;;;;4.20;3.80;;;;;;;;;;4993089;28;20390;-73
2021/04/22 02:11:46;;;;;;;5.80;4.63;;;9.10;99.90;;;;;;4993571;28;20433;-72
2021/04/22 02:14:12;;;;;;;4.17;3.53;;;;;;;;;;4992840;28;20390;-72
2021/04/22 02:16:39;;;;;;;4.70;4.10;;;;;;;;;;4994047;28;20394;-72
2021/04/22 02:19:05;;;;;;;4.95;4.00;;;;;;;;;;4993305;28;20378;-76
2021/04/22 02:21:31;;;;;;;4.25;3.85;;;;;;;;;;4993203;28;20381;-72
2021/04/22 02:23:57;;;;;;;4.45;3.95;;;;;;;;;;4975876;28;20406;-73
2021/04/22 02:26:23;;;;;;;4.95;3.88;;;;;;;;;;4993014;28;20390;-73
2021/04/22 02:28:49;;;;;;;4.38;3.90;;;8.80;99.90;;;;;;4993582;28;20734;-72
2021/04/22 02:31:16;;;;;;;5.60;4.10;;;;;;;;;;4992355;28;20470;-73
2021/04/22 02:33:42;;;;;;;4.10;3.63;;;;;;;;;;4993470;28;20832;-72
2021/04/22 02:36:08;;;;;;;4.35;3.95;;;;;;;;;;4992808;28;20385;-73
2021/04/22 02:38:34;;;;;;;4.63;3.42;;;;;;;;;;4993066;28;20379;-72
2021/04/22 02:41:00;;;;;;;3.90;3.50;;;7.90;99.90;;;;;;4993748;28;20383;-72
2021/04/22 02:43:26;;;;;;;4.10;3.70;;;;;;;;;;4991643;28;20497;-72
2021/04/22 02:45:53;;;;;;;4.20;3.70;;;;;;;;;;4992045;28;20423;-72
2021/04/22 02:48:20;;;;;;;4.13;3.70;;;;;;;;;;4973642;28;20879;-72
2021/04/22 02:50:47;;;;;;;5.20;3.92;;;;;;;;;;4991667;28;20393;-72
2021/04/22 02:53:14;;;;;;;6.60;4.03;;;;;;;;;;4990919;28;20467;-72
2021/04/22 02:55:42;;;;;;;4.50;4.10;;;;;;;;;;4991952;28;20383;-72
2021/04/22 02:58:08;;;;;;;4.73;4.23;;;;;;;;;;4991089;28;20472;-76
2021/04/22 03:00:35;;;;;;;4.70;4.20;;;;;;;;;;4991423;28;20711;-72
2021/04/22 03:03:01;;;;;;;6.72;3.90;;;;;;;;;;4991672;28;20481;-72
2021/04/22 03:05:27;;;;;;;5.20;4.30;;;;;;;;;;4990723;28;20851;-72
2021/04/22 03:07:53;;;;;;;4.90;4.40;;;;;;;;;;4991290;28;20803;-72
2021/04/22 03:10:20;;;;;;;5.63;3.95;;;;;;;;;;4990676;28;20421;-72
2021/04/22 03:12:46;;;;;;;3.75;3.45;;;;;;;;;;4991576;28;20862;-72
2021/04/22 03:15:13;;;;;;;4.68;4.18;;;;;;;;;;4990350;28;20882;-72
2021/04/22 03:17:39;;;;;;;6.18;3.92;;;;;;;;;;4991290;28;20867;-72
2021/04/22 03:20:06;;;;;;;3.90;3.50;;;;;;;;;;4991264;28;20410;-72
2021/04/22 03:22:32;;;;;;;5.72;4.05;;;8.20;99.90;;;;;;4991020;28;20370;-72
2021/04/22 03:24:59;;;;;;;4.20;3.80;;;8.20;99.90;;;;;;4991268;28;20464;-72
2021/04/22 03:27:27;;;;;;;5.05;4.07;;;;;;;;;;4990468;28;20394;-72
2021/04/22 03:29:53;;;;;;;6.28;4.50;;;;;;;;;;4991331;28;20397;-72
2021/04/22 03:32:19;;;;;;;4.93;4.43;;;;;;;;;;4990381;28;20731;-72
2021/04/22 03:34:45;;;;;;;4.10;3.70;;;;;;;;;;4990782;28;20508;-72
2021/04/22 03:37:11;;;;;;;4.40;4.00;;;;;;;;;;4990569;28;20513;-73
2021/04/22 03:39:37;;;;;;;5.00;4.50;;;;;;;;;;4990708;28;20441;-72
2021/04/22 03:42:03;;;;;;;4.57;4.18;;;;;;;;;;4973344;28;20803;-73
2021/04/22 03:45:55;;;;;;;6.00;4.20;;;;;;;;;;5086630;27;20368;-71
2021/04/22 03:48:21;;;;;;;4.72;4.03;;;;;;;;;;5085555;28;20394;-70
2021/04/22 03:50:47;;;;;;;4.10;3.70;;;;;;;;;;5086729;28;20392;-70
2021/04/22 03:53:13;;;;;;;4.40;4.00;;;;;;;;;;5085861;28;20367;-70
2021/04/22 03:55:39;;;;;;;4.30;3.90;;;;;;;;;;5086528;28;20413;-70
2021/04/22 03:58:05;;;;;;;4.15;3.75;;;;;;;;;;5086513;28;20747;-71
2021/04/22 04:00:31;;;;;;;4.80;3.60;;;;;;;;;;5086256;28;20378;-71
2021/04/22 04:02:57;;;;;;;4.55;4.13;;;;;;;;;;5086854;28;20383;-71
2021/04/22 04:05:22;;;;;;;3.72;3.13;;;7.60;99.90;;;;;;5086093;28;20719;-71
2021/04/22 04:07:49;;;;;;;4.23;3.83;;;;;;;;;;5086955;28;20379;-71
2021/04/22 04:10:15;;;;;;;5.40;4.35;;;;;;;;;;5086425;28;20363;-71
2021/04/22 04:12:41;;;;;;;4.38;3.50;;;;;;;;;;5087046;28;20376;-70
2021/04/22 04:15:09;;;;;;;5.93;4.03;;;;;;;;;;5086519;28;20526;-71
2021/04/22 04:17:35;;;;;;;7.13;4.25;;;;;;;;;;5086321;28;20378;-70
2021/04/22 04:20:01;;;;;;;4.80;4.40;;;;;;;;;;5086711;28;20450;-71
2021/04/22 04:22:27;;;;;;;4.80;4.25;;;;;;;;;;5086299;28;20383;-71
2021/04/22 04:24:53;;;;;;;5.43;4.53;;;;;;;;;;5086648;28;20736;-70
2021/04/22 04:27:18;;;;;;;4.45;3.80;;;7.10;99.90;;;;;;5088968;28;20377;-70
2021/04/22 04:29:44;;;;;;;4.78;4.38;;;;;;;;;;5074106;28;20387;-72
2021/04/22 04:32:10;;;;;;;6.32;5.00;;;;;;;;;;5078305;28;20383;-74
2021/04/22 04:34:36;;;;;;;5.63;4.50;;;;;;;;;;5075612;28;20461;-71
2021/04/22 04:37:03;;;;;;;4.28;3.88;;;;;;;;;;5077587;28;21132;-71
2021/04/22 04:39:29;;;;;;;5.10;4.60;;;;;;;;;;5073239;28;20390;-74
2021/04/22 04:41:55;;;;;;;6.03;4.43;;;;;;;;;;5080515;28;20841;-71
2021/04/22 04:44:21;;;;;;;5.05;4.35;;;7.10;99.90;;;;;;5093561;28;20432;-71
2021/04/22 04:46:47;;;;;;;4.93;4.10;;;;;;;;;;5106162;28;20378;-71
2021/04/22 04:49:13;;;;;;;5.32;4.07;;;;;;;;;;5105573;28;20381;-75
2021/04/22 04:51:39;;;;;;;5.00;4.22;;;7.10;99.90;;;;;;5106155;28;20373;-71
2021/04/22 04:54:05;;;;;;;5.55;4.30;;;7.20;99.90;;;;;;5105871;28;20386;-71
2021/04/22 04:56:32;;;;;;;4.10;3.70;;;;;;;;;;5077961;28;20814;-71
2021/04/22 04:58:58;;;;;;;6.45;4.30;;;;;;;;;;5092145;28;20722;-71
2021/04/22 05:01:24;;;;;;;5.65;4.07;;;;;;;;;;5091599;28;20457;-71
2021/04/22 05:03:50;;;;;;;6.15;4.47;;;;;;;;;;5092791;28;20406;-71
2021/04/22 05:06:16;;;;;;;4.72;4.13;;;;;;;;;;5092250;28;20373;-74
2021/04/22 05:08:42;;;;;;;5.15;4.28;;;;;;;;;;5098719;28;20376;-71
2021/04/22 05:11:08;;;;;;;6.60;4.30;;;6.90;99.90;;;;;;5105636;28;20517;-71
2021/04/22 05:13:34;;;;;;;5.83;4.60;;;;;;;;;;5102354;28;20372;-70
2021/04/22 05:16:00;;;;;;;4.72;4.32;;;;;;;;;;5098139;28;20472;-71
2021/04/22 05:18:26;;;;;;;7.07;4.00;;;;;;;;;;5098418;28;20398;-71
2021/04/22 05:20:53;;;;;;;5.28;4.50;;;;;;;;;;5103539;28;20380;-72
2021/04/22 05:23:20;;;;;;;6.00;4.50;;;;;;;;;;5093371;28;20461;-72
2021/04/22 05:25:47;;;;;;;5.85;4.80;;;;;;;;;;5107499;28;20396;-71
2021/04/22 05:28:13;;;;;;;4.90;4.30;;;;;;;;;;5094092;28;20530;-76
2021/04/22 05:30:41;;;;;;;5.20;4.70;;;;;;;;;;5091674;28;20370;-72
2021/04/22 05:33:07;;;;;;;5.40;4.05;;;;;;;;;;5091812;28;20382;-72
2021/04/22 05:35:33;;;;;;;5.15;4.30;;;;;;;;;;5091299;28;20481;-71
2021/04/22 05:37:59;;;;;;;4.30;3.90;;;;;;;;;;5091923;28;20365;-70
2021/04/22 05:40:26;;;;;;;4.57;4.10;;;;;;;;;;5091150;28;20373;-71
2021/04/22 05:42:51;;;;;;;4.85;4.35;;;8.30;99.90;;;;;;5091980;28;20947;-71
2021/04/22 05:45:17;;;;;;;5.03;4.30;;;;;;;;;;5069525;28;20515;-74
2021/04/22 05:47:44;;;;;;;5.10;4.60;;;7.80;99.90;;;;;;5071947;28;20752;-71
2021/04/22 05:50:11;;;;;;;5.65;4.50;;;;;;;;;;5071588;28;20460;-71
2021/04/22 05:52:37;;;;;;;5.90;4.90;;;;;;;;;;5070676;28;20836;-71
2021/04/22 05:55:03;;;;;;;4.68;4.28;;;;;;;;;;5071930;28;20394;-74
2021/04/22 05:57:30;;;;;;;5.38;4.80;;;;;;;;;;5074652;28;20380;-73
2021/04/22 05:59:55;;;;;;;5.20;4.70;;;8.30;99.90;;;;;;5082247;28;20453;-73
2021/04/22 06:02:21;;;;;;;4.67;4.17;;;8.10;99.90;;;;;;5085104;28;20905;-72
2021/04/22 06:04:47;;;;;;;5.43;4.93;;;;;;;;;;5079567;28;20404;-72
2021/04/22 06:07:13;;;;;;;4.90;4.40;;;;;;;;;;5085962;28;20367;-72
2021/04/22 06:09:39;;;;;;;6.00;4.40;;;9.00;99.90;;;;;;5072486;28;20391;-72
2021/04/22 06:12:06;;;;;;;5.90;4.50;;;9.00;99.90;;;;;;5084408;28;20382;-72
2021/04/22 06:14:32;;;;;;;5.00;4.50;;;;;;;;;;5080395;28;20940;-72
2021/04/22 06:16:57;;;;;;;5.18;4.65;;;8.40;99.90;;;;;;5084744;28;20374;-72
2021/04/22 06:19:23;;;;;;;5.43;4.32;;;;;;;;;;5073571;28;20497;-73
2021/04/22 06:21:49;;;;;;;6.25;4.80;;;;;;;;;;5087032;28;20440;-72
2021/04/22 06:24:15;;;;;;;5.85;4.40;;;9.00;99.90;;;;;;5076830;28;20869;-76
2021/04/22 06:26:43;;;;;;;5.28;4.57;;;;;;;;;;5083149;28;20429;-71
2021/04/22 06:29:10;;;;;;;7.32;4.90;;;9.40;99.90;;;;;;5085340;28;20380;-71
2021/04/22 06:31:36;;;;;;;6.35;5.00;;;9.10;99.90;;;;;;5079097;28;20370;-72
2021/04/22 06:34:01;;;;;;;5.30;4.80;;;9.60;99.90;;;;;;5077589;28;20391;-72
2021/04/22 06:36:27;;;;;;;5.90;5.17;;;;;;;;;;5086053;28;20389;-71
2021/04/22 06:38:54;;;;;;;5.90;5.30;;;;;;;;;;5073672;28;20488;-71
2021/04/22 06:41:20;;;;;;;7.68;5.25;;;;;;;;;;5083318;28;20375;-77
2021/04/22 06:43:46;;;;;;;6.60;5.65;;;;;;;;;;5081796;28;20390;-72
2021/04/22 06:46:12;;;;;;;8.00;6.17;;;10.00;99.90;;;;;;5075610;28;20374;-73
2021/04/22 06:48:38;;;;;;;9.35;5.80;;;;;;;;;;5106451;28;21065;-73
2021/04/22 06:51:06;;;;;;;9.05;6.18;;;;;;;;;;5094021;28;20365;-71
2021/04/22 06:53:32;;;;;;;8.20;6.18;;;10.00;99.90;;;;;;5102336;28;20439;-71
2021/04/22 06:55:58;;;;;;;9.83;7.63;;;9.80;99.90;;;;;;5101430;28;20369;-71
2021/04/22 06:58:24;;;;;;;10.75;7.90;;;;;;;;;;5095301;28;20371;-72
2021/04/22 07:00:50;;;;;;;10.18;8.30;;;;;;;;;;5081489;28;20729;-72
2021/04/22 07:03:16;;;;;;;11.00;8.57;;;;;;;;;;5091534;28;20368;-74
2021/04/22 07:05:42;;;;;;;11.30;8.55;;;10.40;99.90;;;;;;5089848;28;20529;-71
2021/04/22 07:08:08;;;;;;;10.00;8.37;;;;;;;;;;5093032;28;20486;-72
2021/04/22 07:10:34;;;;;;;10.15;7.90;;;;;;;;;;5090910;28;20457;-71
2021/04/22 07:13:01;;;;;;;11.90;8.93;;;;;;;;;;5098720;28;20368;-74
2021/04/22 07:15:27;;;;;;;11.02;8.85;;;10.30;99.90;;;;;;5096520;28;20401;-71
2021/04/22 07:17:53;;;;;;;14.15;8.95;;;;;;;;;;5106126;28;20446;-70
2021/04/22 07:20:21;;;;;;;12.40;9.48;;;;;;;;;;5091898;28;20381;-78
2021/04/22 07:22:47;;;;;;;10.52;8.90;;;10.10;99.90;;;;;;5094849;28;20444;-71
2021/04/22 07:25:14;;;;;;;12.50;9.87;;;;;;;;;;5100974;28;20406;-71
2021/04/22 07:27:41;;;;;;;12.45;10.00;;;;;;;;;;5096114;28;20384;-71
2021/04/22 07:30:08;;;;;;;12.88;10.18;;;;;;;;;;5110480;28;20373;-71
2021/04/22 07:32:34;;;;;;;11.85;9.80;;;;;;;;;;5091762;28;20378;-71
2021/04/22 07:35:00;;;;;;;12.90;9.77;;;10.70;99.90;;;;;;5109977;28;20372;-71
2021/04/22 07:37:26;;;;;;;12.07;9.40;;;10.40;99.90;;;;;;5091427;28;20380;-70
2021/04/22 07:39:52;;;;;;;13.63;9.40;;;;;;;;;;5092619;28;20402;-73
2021/04/22 07:42:18;;;;;;;11.45;9.45;;;;;;;;;;5110495;28;20384;-72
2021/04/22 07:44:47;;;;;;;14.25;9.80;;;;;;;;;;5109617;28;20489;-72
2021/04/22 07:47:14;;;;;;;11.90;9.50;;;11.30;99.90;;;;;;5110488;28;20402;-72
2021/04/22 07:49:40;;;;;;;12.10;9.67;;;10.70;99.90;;;;;;5109574;28;20434;-73
2021/04/22 07:52:06;;;;;;;11.38;9.07;;;10.30;99.90;;;;;;5109033;28;20388;-72
2021/04/22 07:54:32;;;;;;;12.13;9.90;;;;;;;;;;5109211;28;20745;-72
2021/04/22 07:56:58;;;;;;;12.13;9.00;;;;;;;;;;5109350;28;20421;-72
2021/04/22 07:59:24;;;;;;;10.90;8.23;;;;;;;;;;5109794;28;20378;-75
2021/04/22 08:01:50;;;;;;;10.87;8.93;;;10.60;99.90;;;;;;5100332;28;20465;-72
2021/04/22 08:04:16;;;;;;;9.67;7.90;;;10.90;99.90;;;;;;5089531;28;20410;-73
2021/04/22 08:06:42;;;;;;;11.13;8.90;;;;;;;;;;5089132;28;20374;-72
2021/04/22 08:09:07;;;;;;;8.60;7.60;;;10.80;99.90;;;;;;5089599;28;20374;-72
2021/04/22 08:11:33;;;;;;;9.93;8.30;;;11.10;99.90;;;;;;5088674;28;20374;-73
2021/04/22 08:14:01;;;;;;;9.95;7.40;;;;;;;;;;5089579;28;20426;-71
2021/04/22 08:16:27;;;;;;;8.73;7.60;;;11.10;99.90;;;;;;5088744;28;20858;-72
2021/04/22 08:18:53;;;;;;;9.20;8.20;;;10.70;99.90;;;;;;5089564;28;20386;-72
2021/04/22 08:21:19;;;;;;;8.63;7.40;;;;;;;;;;5089463;28;20384;-73
2021/04/22 08:23:45;;;;;;;10.77;8.60;;;;;;;;;;5088937;28;20374;-71
2021/04/22 08:26:16;;;;;;;9.95;8.50;;;11.60;99.90;;;;;;5089132;28;20408;-72
2021/04/22 08:28:43;;;;;;;10.40;7.90;;;;;;;;;;5088357;28;20390;-71
2021/04/22 08:31:23;;;;;;;10.95;8.70;;;10.90;99.90;;;;;;5090622;28;20781;-71
2021/04/22 08:33:52;;;;;;;10.40;7.80;;;;;;;;;;5092870;28;20842;-72
2021/04/22 08:36:19;;;;;;;10.60;7.97;;;11.50;99.90;;;;;;5093116;28;20420;-71
2021/04/22 08:38:46;;;;;;;10.65;8.48;;;11.50;99.90;;;;;;5092193;28;20417;-71
2021/04/22 08:41:12;;;;;;;10.10;8.32;;;;;;;;;;5093026;28;20404;-72
2021/04/22 08:43:39;;;;;;;11.80;8.90;;;;;;;;;;5091761;28;20440;-72
2021/04/22 08:46:05;;;;;;;15.27;10.82;;;;;;;;;;5093361;28;20680;-71
2021/04/22 08:48:32;;;;;;;15.20;12.20;;;;;;;;;;5092357;28;20727;-71
2021/04/22 08:50:59;;;;;;;17.00;13.00;;;;;;;;;;5092590;28;20367;-72
2021/04/22 08:53:29;;;;;;;16.20;11.95;;;;;;;;;;5092341;28;20881;-78
2021/04/22 08:55:55;;;;;;;15.35;12.23;;;;;;;;;;5093169;28;20757;-71
2021/04/22 08:58:21;;;;;;;14.65;12.15;;;;;;;;;;5092912;28;20366;-72
2021/04/22 09:00:56;;;;;;;16.00;11.63;;;12.40;99.90;;;;;;5092140;28;20425;-72
2021/04/22 09:03:22;;;;;;;14.77;11.43;;;12.00;99.90;;;;;;5093086;28;20800;-71
2021/04/22 09:05:49;;;;;;;15.83;11.60;;;12.00;99.90;;;;;;5091539;28;20474;-73
2021/04/22 09:08:15;;;;;;;15.50;10.80;;;12.80;99.90;;;;;;5092296;28;20370;-72
2021/04/22 09:10:41;;;;;;;12.93;11.53;;;;;;;;;;5073429;28;21232;-71
2021/04/22 09:13:16;;;;;;;16.15;11.70;;;12.70;99.90;;;;;;5092557;28;20382;-71
2021/04/22 09:15:43;;;;;;;14.07;12.30;;;;;;;;;;5088269;28;20746;-70
2021/04/22 09:18:27;;;;;;;16.83;11.63;;;;;;;;;;5092715;28;20378;-71
2021/04/22 09:20:56;;;;;;;16.13;11.95;;;;;;;;;;5089583;28;20369;-71
2021/04/22 09:23:23;;;;;;;17.10;12.13;;;;;;;;;;5092955;28;20869;-71
2021/04/22 09:26:07;;;;;;;18.35;12.68;;;12.60;99.90;;;;;;5092185;28;20413;-71
2021/04/22 09:28:38;;;;;;;14.53;11.50;;;12.80;99.90;;;;;;5073977;28;20479;-71
2021/04/22 09:31:05;;;;;;;15.13;11.38;;;12.60;99.90;;;;;;5093268;28;20722;-71
2021/04/22 09:33:32;;;;;;;13.43;11.50;;;;;;;;;;5091877;28;20846;-72
2021/04/22 09:36:10;;;;;;;13.88;11.00;;;12.80;99.90;;;;;;5093069;28;20377;-70
2021/04/22 09:38:36;;;;;;;16.48;11.30;;;13.10;99.90;;;;;;5091894;28;20401;-71
2021/04/22 09:41:16;;;;;;;16.67;11.63;;;13.20;99.90;;;;;;5092927;28;20423;-70
2021/04/22 09:43:42;;;;;;;14.93;11.82;;;;;;;;;;5091671;28;20370;-70
2021/04/22 09:46:22;;;;;;;14.60;11.27;;;;;;;;;;5092442;28;20859;-71
2021/04/22 09:48:48;;;;;;;11.68;10.43;;;;;;;;;;5091461;28;20362;-71
2021/04/22 09:51:30;;;;;;;13.15;11.02;;;13.10;99.90;;;;;;5092752;28;20374;-71
2021/04/22 09:54:07;;;;;;;14.57;10.50;;;;;;;;;;5074458;28;20398;-70
2021/04/22 09:56:42;;;;;;;14.73;10.85;;;13.10;99.90;;;;;;5091315;28;20363;-70
2021/04/22 09:59:08;;;;;;;12.07;10.10;;;;;;;;;;5092356;28;20619;-69
2021/04/22 10:01:34;;;;;;;13.93;10.57;;;;;;;;;;5091210;28;20412;-70
2021/04/22 10:04:00;;;;;;;15.63;9.75;;;13.30;99.90;;;;;;5092202;28;20406;-70
2021/04/22 10:06:41;;;;;;;14.10;9.80;;;13.50;99.90;;;;;;5091922;28;20741;-71
2021/04/22 10:09:07;;;;;;;11.55;8.82;;;;;;;;;;5092147;28;20702;-70
2021/04/22 10:11:50;;;;;;;12.98;8.70;;;13.10;99.90;;;;;;5091247;28;20457;-71
2021/04/22 10:14:27;;;;;;;11.73;9.00;;;13.20;99.90;;;;;;5091910;28;20398;-70
2021/04/22 10:16:53;;;;;;;14.65;9.40;;;13.60;99.90;;;;;;5091239;28;20979;-70
2021/04/22 10:19:19;;;;;;;11.30;9.00;;;14.00;99.90;;;;;;5092249;28;20472;-71
2021/04/22 10:21:45;;;;;;;11.65;9.90;;;;;;;;;;5091042;28;20411;-73
2021/04/22 10:24:13;;;;;;;13.35;10.20;;;;;;;;;;5091867;28;20406;-71
2021/04/22 10:26:41;;;;;;;13.33;9.53;;;;;;;;;;5072814;28;20436;-71
2021/04/22 10:29:08;;;;;;;13.50;9.43;;;;;;;;;;5091492;28;20445;-70
2021/04/22 10:31:36;;;;;;;14.10;9.75;;;14.00;99.90;;;;;;5091023;28;20374;-71
2021/04/22 10:34:03;;;;;;;14.23;9.20;;;;;;;;;;5091584;28;20443;-70
2021/04/22 10:36:31;;;;;;;10.90;8.40;;;;;;;;;;5091510;28;20453;-71
2021/04/22 10:38:58;;;;;;;11.35;8.52;;;;;;;;;;5108210;28;20932;-71
2021/04/22 10:41:30;;;;;;;13.95;8.20;;;13.90;99.90;;;;;;5093467;28;20395;-70
2021/04/22 10:43:57;;;;;;;12.23;8.90;;;;;;;;;;5110912;28;20435;-70
2021/04/22 10:46:23;;;;;;;12.75;8.90;;;14.40;99.90;;;;;;5112068;28;20696;-70
2021/04/22 10:48:49;;;;;;;11.82;8.50;;;;;;;;;;5104462;28;20377;-73
2021/04/22 10:51:15;;;;;;;12.60;8.93;;;;;;;;;;5094156;28;20394;-71
2021/04/22 10:53:41;;;;;;;12.75;8.70;;;;;;;;;;5103794;28;20510;-70
2021/04/22 10:56:07;;;;;;;12.23;8.43;;;;;;;;;;5094775;28;20382;-70
2021/04/22 10:58:42;;;;;;;9.35;7.43;;;;;;;;;;5103976;28;20445;-80
2021/04/22 11:01:11;;;;;;;10.18;8.30;;;14.20;99.90;;;;;;5076060;28;20432;-71
2021/04/22 11:03:39;;;;;;;11.60;8.47;;;14.80;99.90;;;;;;5104749;28;20461;-70
2021/04/22 11:06:10;;;;;;;12.52;9.13;;;;;;;;;;5092333;28;20432;-70
2021/04/22 11:08:43;;;;;;;13.38;8.30;;;15.20;99.90;;;;;;5085665;28;20479;-71
2021/04/22 11:11:16;;;;;;;11.43;7.53;;;;;;;;;;5093841;28;20865;-70
2021/04/22 11:13:43;;;;;;;14.45;8.60;;;;;;;;;;5103654;28;20807;-70
2021/04/22 11:16:09;;;;;;;11.75;7.78;;;;;;;;;;5091908;28;20885;-70
2021/04/22 11:18:45;;;;;;;11.40;7.75;;;;;;;;;;5089722;28;20370;-71
2021/04/22 11:21:47;;;;;;;11.90;7.75;;;15.40;99.90;;;;;;5090507;28;20449;-70
2021/04/22 11:24:12;;;;;;;11.43;8.00;;;16.10;99.90;;;;;;5076817;28;20881;-70
2021/04/22 11:26:38;;;;;;;9.98;7.68;;;;;;;;;;5089384;28;20418;-70
2021/04/22 11:29:14;;;;;;;13.15;8.38;;;;;;;;;;5089979;28;20370;-71
2021/04/22 11:31:47;;;;;;;11.40;8.60;;;;;;;;;;5088789;28;20779;-73
2021/04/22 11:34:13;;;;;;;12.13;8.60;;;16.60;99.90;;;;;;5089192;28;20374;-71
2021/04/22 11:36:47;;;;;;;10.77;7.97;;;;;;;;;;5070352;28;20448;-71
2021/04/22 11:39:13;;;;;;;8.32;7.00;;;;;;;;;;5089047;28;20914;-71
2021/04/22 11:41:39;;;;;;;12.88;7.53;;;16.80;95.50;;;;;;5089218;28;20803;-70
2021/04/22 11:44:10;;;;;;;11.77;7.67;;;;;;;;;;5089903;28;20433;-70
2021/04/22 11:46:42;;;;;;;9.73;7.00;;;17.70;94.90;;;;;;5089738;28;20427;-76
2021/04/22 11:49:10;;;;;;;10.60;7.73;;;;;;;;;;5090533;28;20378;-69
2021/04/22 11:51:41;;;;;;;10.40;8.20;;;17.40;95.80;;;;;;5089695;28;20480;-76
2021/04/22 11:54:23;;;;;;;11.68;7.50;;;17.40;92.80;;;;;;5089993;28;20393;-71
2021/04/22 11:56:59;;;;;;;8.68;7.05;;;17.90;95.50;;;;;;5089715;28;20374;-72
2021/04/22 11:59:26;;;;;;;8.20;6.80;;;;;;;;;;5090462;28;20427;-71
2021/04/22 12:01:59;;;;;;;11.43;7.57;;;18.20;96.50;;;;;;5089214;28;21062;-73
2021/04/22 12:04:54;;;;;;;9.73;8.10;;;;;;;;;;5090468;28;20402;-71
2021/04/22 12:07:21;;;;;;;11.10;8.03;;;;;;;;;;5076343;28;20451;-71
2021/04/22 12:09:48;;;;;;;10.30;7.70;;;;;;;;;;5087567;28;20407;-71
2021/04/22 12:12:16;;;;;;;10.48;8.07;;;19.20;92.50;;;;;;5058419;28;20411;-71
2021/04/22 12:14:45;;;;;;;11.00;7.60;;;18.50;95.60;;;;;;5073263;28;20752;-72
2021/04/22 12:17:27;;;;;;;13.30;7.47;;;;;;;;;;5074054;28;20474;-71
2021/04/22 12:19:59;;;;;;;9.63;8.50;;;18.00;95.00;;;;;;5073800;28;20673;-71
2021/04/22 12:22:30;;;;;;;10.15;8.23;;;;;;;;;;5074281;28;20429;-71
2021/04/22 12:24:57;;;;;;;13.80;8.15;;;;;;;;;;5082550;28;20758;-70
2021/04/22 12:27:34;;;;;;;12.68;8.50;;;18.20;92.50;;;;;;5094392;28;20370;-72
2021/04/22 12:30:00;;;;;;;11.40;8.80;;;;;;;;;;5094289;28;20526;-71
2021/04/22 12:32:26;;;;;;;13.57;8.98;;;;;;;;;;5094436;28;20453;-71
2021/04/22 12:34:52;;;;;;;11.82;8.43;;;17.20;89.70;;;;;;5093707;28;20401;-71
2021/04/22 12:37:18;;;;;;;12.35;8.90;;;;;;;;;;5094460;28;20406;-71
2021/04/22 12:39:52;;;;;;;9.48;7.40;;;17.90;90.70;;;;;;5093571;28;20449;-71
2021/04/22 12:42:20;;;;;;;9.15;8.15;;;;;;;;;;5094080;28;20409;-71
2021/04/22 12:45:04;;;;;;;14.10;9.90;;;17.50;95.30;;;;;;5092595;28;21004;-71
2021/04/22 12:47:39;;;;;;;11.00;8.85;;;18.00;85.50;;;;;;5094086;28;20390;-71
2021/04/22 12:50:08;;;;;;;11.75;8.25;;;17.80;89.80;;;;;;5094055;28;20382;-72
2021/04/22 12:52:35;;;;;;;12.85;9.25;;;;;;;;;;5094382;28;20818;-72
2021/04/22 12:55:05;;;;;;;11.03;8.70;;;;;;;;;;5093315;28;20386;-72
2021/04/22 12:57:31;;;;;;;15.17;11.50;;;;;;;;;;5093715;28;20395;-72
2021/04/22 12:59:57;;;;;;;16.85;11.48;;;18.00;91.50;;;;;;5092206;28;20366;-73
2021/04/22 13:02:23;;;;;;;11.68;9.80;;;18.00;94.30;;;;;;5093521;28;20458;-73
2021/04/22 13:04:58;;;;;;;13.52;10.43;;;17.70;92.10;;;;;;5087618;28;20511;-72
2021/04/22 13:07:28;;;;;;;14.18;10.73;;;;;;;;;;5072560;28;20410;-72
2021/04/22 13:09:54;;;;;;;14.48;10.50;;;;;;;;;;5071335;28;20467;-72
2021/04/22 13:12:20;;;;;;;12.90;10.40;;;17.60;90.00;;;;;;5072707;28;20364;-72
2021/04/22 13:14:47;;;;;;;15.20;11.45;;;17.40;90.20;;;;;;5071694;28;20407;-72
2021/04/22 13:17:13;;;;;;;13.55;9.40;;;;;;;;;;5071989;28;20383;-72
2021/04/22 13:19:41;;;;;;;17.58;11.20;;;;;;;;;;5071862;28;20819;-74
2021/04/22 13:22:12;;;;;;;15.20;11.45;;;;;;;;;;5072657;28;20376;-72
2021/04/22 13:24:39;;;;;;;15.52;11.38;;;17.90;86.40;;;;;;5053838;28;20412;-73
2021/04/22 13:27:11;;;;;;;16.05;12.07;;;17.40;85.10;;;;;;5072900;28;20391;-72
2021/04/22 13:30:07;;;;;;;16.52;10.63;;;17.20;90.50;;;;;;5072711;28;20376;-72
2021/04/22 13:32:33;;;;;;;17.00;12.27;;;;;;;;;;5059441;28;20430;-72
2021/04/22 13:35:00;;;;;;;15.55;11.60;;;17.90;86.60;;;;;;5071596;28;20418;-71
2021/04/22 13:37:27;;;;;;;14.40;10.33;;;18.10;91.90;;;;;;5072376;28;20380;-71
2021/04/22 13:39:53;;;;;;;15.35;11.10;;;;;;;;;;5071076;28;20500;-71
2021/04/22 13:42:28;;;;;;;12.38;9.63;;;17.60;86.40;;;;;;5072203;28;20762;-70
2021/04/22 13:44:56;;;;;;;14.98;11.15;;;;;;;;;;5070998;28;20896;-70
2021/04/22 13:47:23;;;;;;;13.95;10.57;;;17.90;82.10;;;;;;5072347;28;20434;-70
2021/04/22 13:49:51;;;;;;;12.23;10.52;;;18.30;83.50;;;;;;5071440;28;20467;-71
2021/04/22 13:52:25;;;;;;;17.60;10.93;;;;;;;;;;5072093;28;20734;-71
2021/04/22 13:54:57;;;;;;;13.38;9.80;;;18.20;81.00;;;;;;5071225;28;20883;-71
2021/04/22 13:57:25;;;;;;;15.65;10.25;;;;;;;;;;5071266;28;20390;-72
2021/04/22 14:00:00;;;;;;;13.60;10.32;;;;;;;;;;5070447;28;20372;-71
2021/04/22 14:02:33;;;;;;;13.57;9.65;;;;;;;;;;5086101;28;20374;-70